Time;durP1;ratioP1;P1;durP2;ratioP2;P2;SDS_P1;SDS_P2;PMS_P1;PMS_P2;Temp;Humidity;BMP_temperature;BMP_pressure;BME280_temperature;BME280_humidity;BME280_pressure;Samples;Min_cycle;Max_cycle;Signal;HPM_P1;HPM_P2
2022/11/03 00:01:07;;;;;;;14.90;11.97;;;9.30;99.90;;;;;;5031709;28;20438;-85
2022/11/03 00:03:34;;;;;;;16.60;10.97;;;9.30;99.90;;;;;;5031802;28;20485;-85
2022/11/03 00:06:05;;;;;;;14.70;12.00;;;9.30;99.90;;;;;;5035331;28;20441;-85
2022/11/03 00:08:32;;;;;;;17.27;13.07;;;9.30;99.90;;;;;;5045873;28;20460;-84
2022/11/03 00:11:04;;;;;;;18.13;12.20;;;9.30;99.90;;;;;;5055649;28;20414;-84
2022/11/03 00:13:30;;;;;;;19.70;11.90;;;9.30;99.90;;;;;;5057819;28;20449;-85
2022/11/03 00:15:57;;;;;;;13.63;10.70;;;9.30;99.90;;;;;;5041655;28;20468;-85
2022/11/03 00:18:24;;;;;;;16.50;11.87;;;9.20;99.90;;;;;;5031711;28;20438;-85
2022/11/03 00:20:56;;;;;;;18.90;11.00;;;9.20;99.90;;;;;;5031126;28;20493;-85
2022/11/03 00:23:27;;;;;;;14.40;9.03;;;9.20;99.90;;;;;;5029855;28;20505;-85
2022/11/03 00:25:54;;;;;;;12.47;8.77;;;9.20;99.90;;;;;;5031684;28;20815;-85
2022/11/03 00:28:20;;;;;;;14.43;10.10;;;9.10;99.90;;;;;;5031168;28;20446;-85
2022/11/03 00:30:47;;;;;;;15.97;11.20;;;9.20;99.90;;;;;;5046924;28;20444;-84
2022/11/03 00:33:14;;;;;;;17.67;12.50;;;9.20;99.90;;;;;;5046388;28;20436;-84
2022/11/03 00:35:41;;;;;;;13.33;10.07;;;9.20;99.90;;;;;;5033154;28;20452;-85
2022/11/03 00:38:07;;;;;;;15.10;9.57;;;9.10;99.90;;;;;;5026809;28;20446;-85
2022/11/03 00:40:35;;;;;;;13.10;10.50;;;9.10;99.90;;;;;;5030724;28;20465;-84
2022/11/03 00:43:02;;;;;;;12.43;10.00;;;9.00;99.90;;;;;;5031436;28;20481;-85
2022/11/03 00:45:29;;;;;;;17.10;10.50;;;9.00;99.90;;;;;;5032526;28;20580;-84
2022/11/03 00:50:40;;;;;;;19.50;11.77;;;9.00;99.90;;;;;;5031445;28;20521;-85
2022/11/03 00:53:08;;;;;;;18.63;12.53;;;8.90;99.90;;;;;;5037353;28;20796;-85
2022/11/03 00:55:36;;;;;;;19.73;13.13;;;8.90;99.90;;;;;;5031951;28;20437;-85
2022/11/03 00:58:03;;;;;;;20.20;12.50;;;8.90;99.90;;;;;;5031246;28;20965;-85
2022/11/03 01:00:30;;;;;;;21.73;12.93;;;8.90;99.90;;;;;;5028609;28;20492;-84
2022/11/03 01:02:57;;;;;;;17.30;11.83;;;8.90;99.90;;;;;;5031787;28;20473;-85
2022/11/03 01:08:07;;;;;;;17.70;11.53;;;8.80;99.90;;;;;;5031068;28;20421;-85
2022/11/03 01:11:42;;;;;;;21.10;15.33;;;8.80;99.90;;;;;;5033951;28;20477;-84
2022/11/03 01:13:25;;;;;;;21.13;12.77;;;8.80;99.90;;;;;;5038361;28;20422;-85
2022/11/03 01:15:56;;;;;;;17.60;12.53;;;8.80;99.90;;;;;;5035585;28;20446;-85
2022/11/03 01:18:22;;;;;;;21.03;12.47;;;8.70;99.90;;;;;;5036885;28;20456;-85
2022/11/03 01:20:54;;;;;;;24.60;11.10;;;8.70;99.90;;;;;;5043705;28;20446;-85
2022/11/03 01:23:21;;;;;;;19.77;12.23;;;8.60;99.90;;;;;;5048037;28;20478;-83
2022/11/03 01:25:49;;;;;;;19.90;12.10;;;8.70;99.90;;;;;;5060573;28;20497;-83
2022/11/03 01:28:16;;;;;;;15.63;11.33;;;8.70;99.90;;;;;;5060215;28;20442;-84
2022/11/03 01:30:43;;;;;;;19.53;12.50;;;8.70;99.90;;;;;;5059926;28;20458;-85
2022/11/03 01:33:10;;;;;;;16.13;11.63;;;8.60;99.90;;;;;;5063025;28;20446;-84
2022/11/03 01:35:36;;;;;;;15.83;11.10;;;8.60;99.90;;;;;;5059596;28;20496;-85
2022/11/03 01:38:03;;;;;;;13.70;10.87;;;8.60;99.90;;;;;;5035955;28;20453;-86
2022/11/03 01:40:30;;;;;;;15.10;12.00;;;8.60;99.90;;;;;;5034966;28;20476;-85
2022/11/03 01:43:16;;;;;;;19.53;12.30;;;8.50;99.90;;;;;;5035621;28;20492;-86
2022/11/03 01:45:44;;;;;;;16.03;11.93;;;8.50;99.90;;;;;;5035142;28;20441;-85
2022/11/03 01:48:12;;;;;;;20.57;13.10;;;8.40;99.90;;;;;;5036586;28;20437;-85
2022/11/03 01:50:43;;;;;;;15.37;11.50;;;8.40;99.90;;;;;;5060893;28;20491;-84
2022/11/03 01:53:11;;;;;;;17.67;13.80;;;8.40;99.90;;;;;;5060146;28;20442;-84
2022/11/03 01:55:39;;;;;;;19.03;13.20;;;8.30;99.90;;;;;;5036004;28;20438;-85
2022/11/03 01:58:08;;;;;;;19.97;13.67;;;8.30;99.90;;;;;;5034170;28;20453;-85
2022/11/03 02:00:36;;;;;;;18.97;14.93;;;8.30;99.90;;;;;;5034323;28;21029;-85
2022/11/03 02:03:05;;;;;;;16.50;12.13;;;8.20;99.90;;;;;;5034310;28;20488;-85
2022/11/03 02:05:32;;;;;;;18.67;12.60;;;8.30;99.90;;;;;;5034968;28;20962;-85
2022/11/03 02:08:04;;;;;;;21.70;14.20;;;8.30;99.90;;;;;;5034188;28;20456;-85
2022/11/03 02:10:30;;;;;;;16.10;12.40;;;8.30;99.90;;;;;;5034144;28;20477;-85
2022/11/03 02:12:57;;;;;;;17.30;12.77;;;8.20;99.90;;;;;;5034247;28;20446;-85
2022/11/03 02:15:25;;;;;;;18.73;12.10;;;8.10;99.90;;;;;;5042060;28;20465;-84
2022/11/03 02:17:54;;;;;;;18.77;11.83;;;8.10;99.90;;;;;;5056836;28;20446;-84
2022/11/03 02:20:25;;;;;;;19.63;13.33;;;8.20;99.90;;;;;;5037336;28;20466;-84
2022/11/03 02:23:09;;;;;;;17.83;13.43;;;8.30;99.90;;;;;;5056826;28;20532;-84
2022/11/03 02:25:42;;;;;;;13.90;11.00;;;8.20;99.90;;;;;;5034818;28;20452;-84
2022/11/03 02:28:10;;;;;;;21.93;12.77;;;8.20;99.90;;;;;;5033973;28;20441;-84
2022/11/03 02:30:44;;;;;;;19.27;13.53;;;8.20;99.90;;;;;;5034141;28;20473;-85
2022/11/03 02:33:20;;;;;;;17.40;13.13;;;8.20;99.90;;;;;;5034231;28;20441;-82
2022/11/03 02:35:52;;;;;;;17.87;12.40;;;8.20;99.90;;;;;;5056784;28;20444;-82
2022/11/03 02:38:21;;;;;;;14.27;12.77;;;8.10;99.90;;;;;;5040193;28;20444;-85
2022/11/03 02:40:53;;;;;;;16.70;11.67;;;8.00;99.90;;;;;;5033804;28;20452;-85
2022/11/03 02:43:23;;;;;;;17.17;12.93;;;7.90;99.90;;;;;;5035614;28;20863;-85
2022/11/03 02:45:52;;;;;;;18.57;13.00;;;7.90;99.90;;;;;;5055449;28;20430;-83
2022/11/03 02:48:19;;;;;;;19.77;13.57;;;7.90;99.90;;;;;;5058608;28;20445;-83
2022/11/03 02:50:48;;;;;;;21.40;12.63;;;7.90;99.90;;;;;;5057762;28;20448;-83
2022/11/03 02:53:16;;;;;;;24.27;14.30;;;7.90;99.90;;;;;;5044299;28;20938;-83
2022/11/03 02:55:51;;;;;;;14.73;12.03;;;7.90;99.90;;;;;;5038293;28;20479;-83
2022/11/03 02:58:25;;;;;;;18.23;12.80;;;7.90;99.90;;;;;;5055284;28;20500;-83
2022/11/03 03:00:55;;;;;;;17.77;11.93;;;7.90;99.90;;;;;;5038522;28;20463;-84
2022/11/03 03:03:26;;;;;;;17.70;13.10;;;7.90;99.90;;;;;;5038266;28;20491;-83
2022/11/03 03:05:59;;;;;;;18.90;12.33;;;7.90;99.90;;;;;;5036180;28;20532;-83
2022/11/03 03:08:26;;;;;;;18.23;12.73;;;7.90;99.90;;;;;;5037971;28;20453;-83
2022/11/03 03:10:59;;;;;;;18.90;13.00;;;7.90;99.90;;;;;;5052219;28;20442;-83
2022/11/03 03:13:26;;;;;;;17.90;12.93;;;7.90;99.90;;;;;;5051106;28;20528;-83
2022/11/03 03:16:05;;;;;;;14.60;11.13;;;7.90;99.90;;;;;;5038503;28;20448;-84
2022/11/03 03:18:42;;;;;;;19.83;11.63;;;7.90;99.90;;;;;;5055823;28;20421;-82
2022/11/03 03:21:15;;;;;;;18.03;12.10;;;7.90;99.90;;;;;;5058885;28;20410;-83
2022/11/03 03:23:48;;;;;;;18.50;12.57;;;7.90;99.90;;;;;;5039201;28;21036;-83
2022/11/03 03:26:23;;;;;;;17.87;11.60;;;7.90;99.90;;;;;;5034181;28;20457;-84
2022/11/03 03:28:56;;;;;;;16.63;12.13;;;7.90;99.90;;;;;;5033554;28;20478;-84
2022/11/03 03:31:25;;;;;;;20.10;13.43;;;7.90;99.90;;;;;;5033006;28;20537;-84
2022/11/03 03:33:54;;;;;;;17.87;12.43;;;7.90;99.90;;;;;;5054411;28;20452;-84
2022/11/03 03:36:24;;;;;;;17.47;12.37;;;7.90;99.90;;;;;;5056549;28;20476;-83
2022/11/03 03:38:54;;;;;;;19.93;13.87;;;8.00;99.90;;;;;;5037945;28;20468;-84
2022/11/03 03:41:28;;;;;;;18.07;12.80;;;7.90;99.90;;;;;;5046668;28;20464;-83
2022/11/03 03:43:57;;;;;;;21.67;13.00;;;7.90;99.90;;;;;;5056073;28;20469;-83
2022/11/03 03:46:29;;;;;;;17.63;13.93;;;7.90;99.90;;;;;;5036579;28;20442;-84
2022/11/03 03:48:56;;;;;;;17.17;13.60;;;7.90;99.90;;;;;;5032527;28;21052;-82
2022/11/03 03:51:26;;;;;;;21.53;13.13;;;7.90;99.90;;;;;;5032636;28;20457;-83
2022/11/03 03:53:53;;;;;;;21.63;12.80;;;7.80;99.90;;;;;;5034793;28;20442;-84
2022/11/03 03:56:25;;;;;;;16.60;14.03;;;7.90;99.90;;;;;;5032877;28;20460;-83
2022/11/03 03:58:52;;;;;;;14.87;12.03;;;7.80;99.90;;;;;;5032670;28;20476;-86
2022/11/03 04:01:18;;;;;;;18.37;13.50;;;7.80;99.90;;;;;;5042883;28;20892;-83
2022/11/03 04:03:45;;;;;;;17.67;12.97;;;7.70;99.90;;;;;;5033600;28;20488;-84
2022/11/03 04:06:12;;;;;;;18.53;12.47;;;7.60;99.90;;;;;;5034609;28;20533;-85
2022/11/03 04:08:39;;;;;;;22.00;14.07;;;7.60;99.90;;;;;;5044948;28;20476;-84
2022/11/03 04:22:16;;;;;;;15.70;12.33;;;7.50;99.90;;;;;;5033659;28;20430;-84
2022/11/03 04:24:43;;;;;;;16.97;11.97;;;7.50;99.90;;;;;;5033254;28;20531;-84
2022/11/03 04:27:25;;;;;;;18.53;12.80;;;7.40;99.90;;;;;;5032627;28;20449;-84
2022/11/03 04:29:57;;;;;;;18.60;11.90;;;7.40;99.90;;;;;;5031965;28;20469;-84
2022/11/03 04:32:25;;;;;;;15.50;11.57;;;7.40;99.90;;;;;;5032126;28;20908;-84
2022/11/03 04:34:52;;;;;;;13.03;11.50;;;7.40;99.90;;;;;;5036210;28;20449;-84
2022/11/03 04:37:19;;;;;;;12.97;11.00;;;7.40;99.90;;;;;;5053803;28;20472;-84
2022/11/03 04:39:46;;;;;;;15.27;10.83;;;7.40;99.90;;;;;;5044129;28;20466;-84
2022/11/03 04:42:17;;;;;;;19.97;12.93;;;7.40;99.90;;;;;;5034813;28;20463;-83
2022/11/03 04:44:48;;;;;;;14.30;12.43;;;7.50;99.90;;;;;;5037132;28;20927;-84
2022/11/03 04:47:17;;;;;;;14.37;11.97;;;7.40;99.90;;;;;;5036711;28;20452;-85
2022/11/03 04:49:46;;;;;;;14.07;11.53;;;7.50;99.90;;;;;;5046731;28;20444;-86
2022/11/03 04:52:16;;;;;;;16.43;11.60;;;7.50;99.90;;;;;;5059604;28;20440;-86
2022/11/03 04:54:43;;;;;;;15.07;12.10;;;7.50;99.90;;;;;;5059536;28;20454;-86
2022/11/03 04:57:13;;;;;;;19.67;11.87;;;7.40;99.90;;;;;;5049426;28;20448;-86
2022/11/03 04:59:41;;;;;;;15.60;12.17;;;7.40;99.90;;;;;;5036718;28;20474;-86
2022/11/03 05:02:12;;;;;;;12.80;11.33;;;7.40;99.90;;;;;;5036144;28;20450;-86
2022/11/03 05:04:40;;;;;;;14.03;11.47;;;7.40;99.90;;;;;;5036467;28;20939;-86
2022/11/03 05:07:20;;;;;;;17.47;12.33;;;7.40;99.90;;;;;;5036007;28;20461;-86
2022/11/03 05:09:47;;;;;;;18.97;14.07;;;7.30;99.90;;;;;;5036927;28;20477;-84
2022/11/03 05:12:13;;;;;;;22.83;11.93;;;7.30;99.90;;;;;;5039044;28;20443;-85
2022/11/03 05:14:40;;;;;;;17.97;12.63;;;7.30;99.90;;;;;;5044104;28;20445;-84
2022/11/03 05:17:18;;;;;;;25.77;12.80;;;7.30;99.90;;;;;;5043399;28;20449;-85
2022/11/03 05:19:46;;;;;;;21.97;13.30;;;7.20;99.90;;;;;;5051857;28;20544;-84
2022/11/03 05:22:16;;;;;;;20.03;12.87;;;7.30;99.90;;;;;;5044464;28;20454;-85
2022/11/03 05:24:43;;;;;;;13.33;11.93;;;7.30;99.90;;;;;;5038332;28;20535;-84
2022/11/03 05:27:16;;;;;;;16.33;12.93;;;7.30;99.90;;;;;;5036338;28;20449;-84
2022/11/03 05:29:43;;;;;;;17.60;12.30;;;7.20;99.90;;;;;;5037478;28;20465;-84
2022/11/03 05:32:14;;;;;;;18.90;13.30;;;7.20;99.90;;;;;;5036978;28;20445;-84
2022/11/03 05:34:43;;;;;;;19.47;12.80;;;7.20;99.90;;;;;;5038243;28;20442;-85
2022/11/03 05:37:23;;;;;;;15.60;13.03;;;7.10;99.90;;;;;;5038617;28;20457;-85
2022/11/03 05:39:51;;;;;;;20.50;13.03;;;7.10;99.90;;;;;;5038730;28;20450;-84
2022/11/03 05:42:32;;;;;;;18.03;12.90;;;7.10;99.90;;;;;;5048303;28;20426;-84
2022/11/03 05:45:00;;;;;;;19.77;12.87;;;7.20;99.90;;;;;;5032742;28;20484;-84
2022/11/03 05:47:31;;;;;;;15.37;12.40;;;7.10;99.90;;;;;;5034766;28;20442;-86
2022/11/03 05:50:06;;;;;;;18.13;12.27;;;7.20;99.90;;;;;;5023265;28;20539;-86
2022/11/03 05:52:35;;;;;;;15.43;12.33;;;7.20;99.90;;;;;;5033833;28;20870;-86
2022/11/03 05:55:03;;;;;;;16.93;13.00;;;7.20;99.90;;;;;;5031323;28;20446;-84
2022/11/03 05:57:32;;;;;;;13.97;12.47;;;7.20;99.90;;;;;;5034959;28;20954;-84
2022/11/03 05:59:59;;;;;;;19.47;12.30;;;7.20;99.90;;;;;;5027586;28;20459;-84
2022/11/03 06:02:37;;;;;;;22.10;14.67;;;7.20;99.90;;;;;;5038046;28;20810;-85
2022/11/03 06:05:15;;;;;;;18.87;14.27;;;7.10;99.90;;;;;;5029963;28;20605;-85
2022/11/03 06:07:45;;;;;;;24.40;13.73;;;7.20;99.90;;;;;;5050719;28;20430;-85
2022/11/03 06:10:34;;;;;;;21.60;14.20;;;7.20;99.90;;;;;;5055459;28;20474;-86
2022/11/03 06:13:04;;;;;;;19.70;12.10;;;7.20;99.90;;;;;;5057458;28;20438;-86
2022/11/03 06:15:33;;;;;;;17.90;14.90;;;7.20;99.90;;;;;;5058436;28;20517;-86
2022/11/03 06:18:02;;;;;;;21.17;12.90;;;7.10;99.90;;;;;;5059224;28;20434;-84
2022/11/03 06:20:29;;;;;;;23.03;13.90;;;7.10;99.90;;;;;;5041939;28;20461;-85
2022/11/03 06:22:57;;;;;;;21.80;14.57;;;7.10;99.90;;;;;;5038363;28;20502;-85
2022/11/03 06:25:29;;;;;;;35.80;14.63;;;7.10;99.90;;;;;;5018343;28;20479;-84
2022/11/03 06:28:01;;;;;;;20.40;14.17;;;7.10;99.90;;;;;;5022188;28;20533;-84
2022/11/03 06:30:29;;;;;;;25.33;15.87;;;7.10;99.90;;;;;;5038279;28;20474;-85
2022/11/03 06:33:00;;;;;;;27.63;17.07;;;7.10;99.90;;;;;;5038854;28;20809;-85
2022/11/03 06:35:27;;;;;;;28.43;16.80;;;7.10;99.90;;;;;;5038668;28;20469;-85
2022/11/03 06:37:56;;;;;;;26.40;15.70;;;7.10;99.90;;;;;;5043130;28;20450;-86
2022/11/03 06:40:33;;;;;;;21.27;16.10;;;7.10;99.90;;;;;;5043660;28;20450;-85
2022/11/03 06:43:09;;;;;;;23.43;13.53;;;7.10;99.90;;;;;;5054931;28;20512;-85
2022/11/03 06:45:36;;;;;;;24.20;14.27;;;7.20;99.90;;;;;;5042929;28;20461;-85
2022/11/03 06:48:08;;;;;;;25.93;16.03;;;7.30;99.90;;;;;;5059022;28;20493;-86
2022/11/03 06:50:37;;;;;;;23.73;14.93;;;7.30;99.90;;;;;;5058529;28;20513;-86
2022/11/03 06:53:05;;;;;;;17.60;13.80;;;7.30;99.90;;;;;;5052792;28;20429;-84
2022/11/03 06:55:34;;;;;;;22.27;13.57;;;7.40;99.90;;;;;;5049895;28;20452;-86
2022/11/03 06:58:07;;;;;;;16.43;13.90;;;7.50;99.90;;;;;;5058948;28;20502;-86
2022/11/03 07:00:39;;;;;;;22.77;13.70;;;7.60;99.90;;;;;;5052233;28;20470;-86
2022/11/03 07:03:15;;;;;;;22.73;14.70;;;7.70;99.90;;;;;;5047118;28;20424;-86
2022/11/03 07:05:43;;;;;;;19.20;13.83;;;7.80;99.90;;;;;;5039745;28;20490;-86
2022/11/03 07:08:20;;;;;;;22.60;12.47;;;7.80;99.90;;;;;;5040951;28;20445;-86
2022/11/03 07:10:47;;;;;;;22.93;12.50;;;7.80;99.90;;;;;;5040938;28;20819;-86
2022/11/03 07:13:17;;;;;;;19.20;13.70;;;7.90;99.90;;;;;;5045805;28;20465;-86
2022/11/03 07:15:45;;;;;;;25.20;13.87;;;8.00;99.90;;;;;;5050928;28;20456;-86
2022/11/03 07:18:19;;;;;;;22.30;13.63;;;8.10;99.90;;;;;;5041465;28;20457;-86
2022/11/03 07:20:46;;;;;;;26.90;14.43;;;8.20;99.90;;;;;;5039073;28;20468;-87
2022/11/03 07:23:19;;;;;;;25.33;14.93;;;8.30;99.90;;;;;;5037167;28;20429;-86
2022/11/03 07:25:48;;;;;;;23.37;16.20;;;8.40;99.90;;;;;;5049452;28;20466;-87
2022/11/03 07:28:15;;;;;;;20.43;13.10;;;8.50;99.90;;;;;;5057206;28;20429;-86
2022/11/03 07:30:42;;;;;;;19.73;12.70;;;8.60;99.90;;;;;;5037642;28;20480;-86
2022/11/03 07:33:17;;;;;;;16.10;13.37;;;8.60;99.90;;;;;;5035881;28;20468;-86
2022/11/03 07:35:46;;;;;;;23.63;13.50;;;8.80;99.90;;;;;;5039193;28;20792;-86
2022/11/03 07:38:18;;;;;;;14.77;11.40;;;8.90;99.90;;;;;;5037146;28;20508;-84
2022/11/03 07:40:44;;;;;;;16.90;12.30;;;9.00;99.90;;;;;;5044642;28;20475;-85
2022/11/03 07:43:15;;;;;;;19.10;12.40;;;9.10;99.90;;;;;;5050680;28;20481;-85
2022/11/03 07:45:44;;;;;;;17.97;11.57;;;9.20;99.90;;;;;;5045060;28;20485;-86
2022/11/03 07:48:19;;;;;;;15.57;12.20;;;9.20;99.90;;;;;;5041424;28;20445;-85
2022/11/03 07:50:46;;;;;;;17.97;14.17;;;9.20;99.90;;;;;;5040361;28;20441;-85
2022/11/03 07:53:18;;;;;;;24.53;13.80;;;9.30;99.90;;;;;;5042831;28;20448;-86
2022/11/03 07:55:46;;;;;;;19.90;12.33;;;9.40;99.90;;;;;;5038329;28;21097;-85
2022/11/03 07:58:24;;;;;;;17.30;12.57;;;9.40;99.90;;;;;;5037489;28;20441;-85
2022/11/03 08:00:57;;;;;;;17.27;12.00;;;9.40;99.90;;;;;;5038312;28;20461;-86
2022/11/03 08:03:39;;;;;;;22.60;12.43;;;9.60;99.90;;;;;;5036962;28;20478;-86
2022/11/03 08:06:06;;;;;;;18.70;11.90;;;9.70;99.90;;;;;;5037695;28;20477;-86
2022/11/03 08:08:34;;;;;;;15.80;10.93;;;9.80;99.90;;;;;;5055731;28;20441;-86
2022/11/03 08:11:01;;;;;;;16.50;11.93;;;10.00;99.90;;;;;;5049896;28;20463;-86
2022/11/03 08:13:28;;;;;;;18.53;13.77;;;10.40;99.90;;;;;;5038467;28;20455;-86
2022/11/03 08:15:55;;;;;;;15.57;12.67;;;10.50;99.90;;;;;;5038548;28;20444;-85
2022/11/03 08:18:22;;;;;;;17.93;13.17;;;10.70;99.90;;;;;;5037295;28;20445;-86
2022/11/03 08:20:48;;;;;;;17.47;13.23;;;10.80;99.90;;;;;;5055697;28;20437;-87
2022/11/03 08:23:15;;;;;;;14.97;11.67;;;11.00;99.90;;;;;;5049291;28;20437;-86
2022/11/03 08:25:43;;;;;;;16.63;10.93;;;11.10;99.90;;;;;;5053878;28;20560;-87
2022/11/03 08:28:10;;;;;;;14.83;10.23;;;11.00;99.90;;;;;;5051086;28;20864;-86
2022/11/03 08:30:37;;;;;;;22.87;10.50;;;11.10;99.90;;;;;;5040613;28;20465;-85
2022/11/03 08:33:04;;;;;;;15.20;11.07;;;11.20;99.90;;;;;;5043096;28;20544;-85
2022/11/03 08:35:31;;;;;;;20.70;11.57;;;11.40;99.90;;;;;;5049727;28;20484;-86
2022/11/03 08:37:58;;;;;;;13.00;9.40;;;11.50;99.90;;;;;;5038678;28;20934;-86
2022/11/03 08:40:24;;;;;;;14.37;10.33;;;11.50;99.90;;;;;;5045620;28;20493;-85
2022/11/03 08:42:53;;;;;;;12.40;10.37;;;11.60;99.90;;;;;;5050363;28;20452;-86
2022/11/03 08:45:19;;;;;;;14.20;11.93;;;11.70;99.90;;;;;;5044712;28;20485;-85
2022/11/03 08:47:46;;;;;;;14.07;11.23;;;11.70;99.90;;;;;;5041627;28;20445;-85
2022/11/03 08:50:13;;;;;;;11.47;9.00;;;11.90;99.90;;;;;;5041528;28;20814;-85
2022/11/03 08:52:40;;;;;;;13.07;9.07;;;11.90;99.90;;;;;;5040788;28;20455;-85
2022/11/03 08:55:07;;;;;;;14.83;10.30;;;12.00;99.90;;;;;;5039656;28;20444;-85
2022/11/03 08:57:34;;;;;;;14.30;9.00;;;12.10;99.90;;;;;;5043881;28;20447;-85
2022/11/03 09:00:04;;;;;;;13.73;9.90;;;12.20;99.90;;;;;;5042778;28;20473;-85
2022/11/03 09:02:31;;;;;;;13.13;10.30;;;12.30;99.90;;;;;;5044288;28;20457;-85
2022/11/03 09:04:58;;;;;;;13.73;10.30;;;12.30;99.90;;;;;;5050282;28;20481;-85
2022/11/03 09:07:25;;;;;;;19.53;11.07;;;12.60;99.90;;;;;;5038655;28;20446;-85
2022/11/03 09:09:51;;;;;;;16.50;10.70;;;12.70;99.90;;;;;;5042543;28;21308;-85
2022/11/03 09:12:18;;;;;;;17.13;9.67;;;12.60;99.90;;;;;;5042904;28;20460;-85
2022/11/03 09:14:45;;;;;;;14.60;10.47;;;12.70;99.90;;;;;;5058668;28;20430;-85
2022/11/03 09:17:13;;;;;;;13.13;10.00;;;12.80;99.90;;;;;;5045647;28;20445;-85
2022/11/03 09:19:40;;;;;;;11.60;10.30;;;12.90;99.90;;;;;;5045816;28;20484;-85
2022/11/03 09:22:06;;;;;;;13.70;11.27;;;12.80;99.90;;;;;;5048910;28;20445;-84
2022/11/03 09:24:33;;;;;;;14.20;9.80;;;12.80;99.90;;;;;;5043682;28;20477;-84
2022/11/03 09:27:00;;;;;;;17.03;9.73;;;12.90;99.90;;;;;;5038950;28;20472;-85
2022/11/03 09:29:27;;;;;;;11.33;10.23;;;13.10;99.90;;;;;;5039236;28;20473;-85
2022/11/03 09:31:54;;;;;;;15.63;9.43;;;13.30;99.90;;;;;;5040283;28;20815;-85
2022/11/03 09:34:22;;;;;;;14.10;10.20;;;13.60;99.90;;;;;;5043276;28;20454;-85
2022/11/03 09:36:49;;;;;;;14.70;10.00;;;13.80;99.90;;;;;;5040057;28;20467;-85
2022/11/03 09:39:15;;;;;;;13.70;8.57;;;14.00;99.90;;;;;;5037471;28;20488;-85
2022/11/03 09:41:42;;;;;;;14.47;9.87;;;14.10;99.90;;;;;;5039294;28;20449;-80
2022/11/03 09:44:09;;;;;;;14.63;8.63;;;14.20;99.90;;;;;;5044668;28;20426;-80
2022/11/03 09:46:36;;;;;;;15.27;8.57;;;14.10;99.90;;;;;;5052017;28;20510;-79
2022/11/03 09:49:05;;;;;;;11.10;8.20;;;14.00;99.90;;;;;;5050812;28;20461;-79
2022/11/03 09:51:35;;;;;;;13.03;9.13;;;14.00;99.90;;;;;;5041449;28;20441;-86
2022/11/03 09:54:04;;;;;;;11.50;8.63;;;13.90;99.90;;;;;;5042588;28;20454;-86
2022/11/03 09:56:31;;;;;;;10.77;8.33;;;14.00;99.90;;;;;;5043803;28;20877;-86
2022/11/03 09:58:59;;;;;;;13.20;9.00;;;14.00;99.90;;;;;;5043911;28;20462;-86
2022/11/03 10:01:26;;;;;;;12.70;7.87;;;14.00;99.90;;;;;;5044849;28;20450;-85
2022/11/03 10:03:58;;;;;;;11.30;7.80;;;14.00;99.90;;;;;;5044280;28;20461;-86
2022/11/03 10:06:25;;;;;;;15.63;8.63;;;14.00;99.90;;;;;;5042422;28;20477;-86
2022/11/03 10:08:53;;;;;;;11.23;8.07;;;14.00;99.90;;;;;;5040816;28;20473;-86
2022/11/03 10:11:20;;;;;;;9.60;8.50;;;13.90;99.90;;;;;;5047384;28;20442;-86
2022/11/03 10:13:51;;;;;;;21.50;10.63;;;13.80;99.90;;;;;;5058341;28;20441;-87
2022/11/03 10:16:20;;;;;;;12.17;8.10;;;13.60;99.90;;;;;;5044158;28;20449;-86
2022/11/03 10:18:48;;;;;;;11.40;9.50;;;13.50;99.90;;;;;;5041971;28;20470;-86
2022/11/03 10:21:17;;;;;;;13.00;8.83;;;13.40;99.90;;;;;;5043127;28;20971;-85
2022/11/03 10:23:44;;;;;;;14.60;10.20;;;13.40;99.90;;;;;;5047586;28;20458;-86
2022/11/03 10:26:17;;;;;;;12.63;9.90;;;13.40;99.90;;;;;;5049353;28;20480;-87
2022/11/03 10:28:59;;;;;;;12.70;9.20;;;13.50;99.90;;;;;;5040654;28;20480;-86
2022/11/03 10:31:33;;;;;;;13.23;9.10;;;13.50;99.90;;;;;;5042472;28;20938;-86
2022/11/03 10:34:00;;;;;;;13.97;8.93;;;13.60;99.90;;;;;;5044547;28;20833;-86
2022/11/03 10:36:28;;;;;;;13.40;9.97;;;13.70;99.90;;;;;;5039468;28;20935;-86
2022/11/03 10:38:56;;;;;;;12.20;7.90;;;13.70;99.90;;;;;;5037039;28;20556;-86
2022/11/03 10:41:26;;;;;;;12.37;8.77;;;13.80;99.90;;;;;;5042870;28;20442;-86
2022/11/03 10:44:04;;;;;;;17.57;9.33;;;13.70;99.90;;;;;;5059189;28;20452;-85
2022/11/03 10:46:32;;;;;;;20.90;9.00;;;13.70;99.90;;;;;;5059050;28;20474;-87
2022/11/03 10:49:04;;;;;;;14.20;9.10;;;13.70;99.90;;;;;;5054059;28;20468;-86
2022/11/03 10:51:32;;;;;;;12.00;9.03;;;13.70;99.90;;;;;;5036764;28;20449;-86
2022/11/03 10:53:59;;;;;;;12.47;8.20;;;13.80;99.90;;;;;;5037416;28;20441;-86
2022/11/03 10:56:28;;;;;;;11.77;8.57;;;13.90;99.90;;;;;;5035716;28;20446;-86
2022/11/03 10:58:56;;;;;;;13.43;8.57;;;14.00;99.90;;;;;;5037784;28;20990;-86
2022/11/03 11:01:23;;;;;;;9.83;7.67;;;14.20;99.90;;;;;;5041993;28;20500;-86
2022/11/03 11:03:50;;;;;;;11.30;7.70;;;14.50;99.90;;;;;;5043405;28;20456;-86
2022/11/03 11:06:20;;;;;;;11.03;8.27;;;14.40;99.90;;;;;;5040855;28;20484;-86
2022/11/03 11:08:47;;;;;;;13.30;8.40;;;14.40;99.90;;;;;;5043813;28;20454;-87
2022/11/03 11:11:16;;;;;;;11.70;8.13;;;14.50;99.90;;;;;;5047989;28;20833;-85
2022/11/03 11:13:44;;;;;;;12.83;8.17;;;14.50;99.90;;;;;;5040163;28;20473;-85
2022/11/03 11:16:44;;;;;;;11.90;7.90;;;14.60;99.90;;;;;;5039364;28;20445;-85
2022/11/03 11:19:14;;;;;;;13.27;9.97;;;14.50;99.90;;;;;;5033997;28;20550;-85
2022/11/03 11:22:14;;;;;;;10.80;8.57;;;14.60;99.90;;;;;;5047518;28;20536;-84
2022/11/03 11:24:59;;;;;;;11.37;9.27;;;14.50;99.90;;;;;;5043030;28;20476;-84
2022/11/03 11:28:05;;;;;;;14.60;8.40;;;14.50;99.90;;;;;;5042552;28;20529;-84
2022/11/03 11:31:24;;;;;;;13.90;8.43;;;14.50;99.90;;;;;;5039699;28;20500;-84
2022/11/03 11:34:31;;;;;;;12.00;7.83;;;14.20;99.90;;;;;;5040046;28;20818;-84
2022/11/03 11:37:31;;;;;;;11.70;7.93;;;14.20;99.90;;;;;;5040116;28;20471;-85
2022/11/03 11:39:58;;;;;;;9.90;8.23;;;14.20;99.90;;;;;;5036349;28;20982;-84
2022/11/03 11:42:25;;;;;;;10.60;7.80;;;14.20;99.90;;;;;;5042015;28;20450;-84
2022/11/03 11:45:01;;;;;;;13.37;7.70;;;14.40;99.90;;;;;;5046459;28;20452;-83
2022/11/03 11:47:48;;;;;;;12.43;9.53;;;14.50;99.90;;;;;;5048374;28;20450;-84
2022/11/03 11:50:40;;;;;;;15.73;8.80;;;14.50;99.90;;;;;;5042336;28;20525;-83
2022/11/03 11:53:13;;;;;;;12.67;9.20;;;14.60;99.90;;;;;;5047008;28;20433;-83
2022/11/03 11:55:48;;;;;;;13.20;9.23;;;14.50;99.90;;;;;;5039330;28;20449;-84
2022/11/03 11:58:23;;;;;;;19.83;10.73;;;14.50;99.90;;;;;;5043948;28;20452;-84
2022/11/03 12:00:56;;;;;;;15.73;9.03;;;14.40;99.90;;;;;;5039088;28;20445;-84
2022/11/03 12:03:38;;;;;;;14.80;8.70;;;14.40;99.90;;;;;;5039212;28;20548;-84
2022/11/03 12:06:06;;;;;;;16.10;8.90;;;14.40;99.90;;;;;;5038635;28;20485;-84
2022/11/03 12:08:34;;;;;;;13.27;9.40;;;14.40;99.90;;;;;;5055187;28;20500;-83
2022/11/03 12:11:02;;;;;;;17.03;9.87;;;14.40;99.90;;;;;;5046355;28;20450;-85
2022/11/03 12:13:41;;;;;;;16.23;12.43;;;14.30;99.90;;;;;;5042093;28;21155;-85
2022/11/03 12:16:08;;;;;;;18.00;11.30;;;14.20;99.90;;;;;;5041121;28;20472;-84
2022/11/03 12:18:37;;;;;;;15.30;11.87;;;14.00;99.90;;;;;;5039936;28;20448;-85
2022/11/03 12:21:07;;;;;;;15.17;11.33;;;14.00;99.90;;;;;;5040732;28;20446;-83
2022/11/03 12:23:44;;;;;;;13.67;9.93;;;14.00;99.90;;;;;;5043655;28;20441;-83
2022/11/03 12:26:16;;;;;;;18.40;12.77;;;14.10;99.90;;;;;;5054858;28;20488;-84
2022/11/03 12:28:43;;;;;;;12.20;9.63;;;14.10;99.90;;;;;;5039988;28;20500;-84
2022/11/03 12:31:11;;;;;;;10.60;8.23;;;14.10;99.90;;;;;;5040813;28;20970;-84
2022/11/03 12:33:38;;;;;;;13.07;7.57;;;14.10;99.90;;;;;;5038967;28;20450;-84
2022/11/03 12:36:07;;;;;;;9.50;7.40;;;14.10;99.90;;;;;;5040117;28;20441;-84
2022/11/03 12:38:33;;;;;;;15.00;9.67;;;14.00;99.90;;;;;;5038200;28;20457;-85
2022/11/03 12:41:19;;;;;;;10.93;8.20;;;14.00;99.90;;;;;;5038706;28;20445;-85
2022/11/03 12:43:47;;;;;;;10.53;7.43;;;14.00;99.90;;;;;;5039948;28;20446;-85
2022/11/03 12:46:15;;;;;;;10.33;7.50;;;13.90;99.90;;;;;;5038218;28;20496;-84
2022/11/03 12:48:42;;;;;;;17.20;9.03;;;13.90;99.90;;;;;;5044699;28;20465;-84
2022/11/03 12:51:12;;;;;;;12.60;9.10;;;14.00;99.90;;;;;;5038578;28;20545;-85
2022/11/03 12:53:38;;;;;;;10.33;8.13;;;14.10;99.90;;;;;;5038259;28;20458;-84
2022/11/03 12:56:05;;;;;;;15.50;9.07;;;14.10;99.90;;;;;;5038937;28;20452;-83
2022/11/03 12:58:34;;;;;;;13.60;10.60;;;14.10;99.90;;;;;;5040372;28;20445;-83
2022/11/03 13:01:01;;;;;;;16.03;9.20;;;13.90;99.90;;;;;;5040745;28;20454;-83
2022/11/03 13:03:28;;;;;;;12.13;8.70;;;13.90;99.90;;;;;;5043341;28;20980;-85
2022/11/03 13:05:55;;;;;;;12.87;9.27;;;13.90;99.90;;;;;;5044201;28;21005;-84
2022/11/03 13:08:23;;;;;;;14.63;9.13;;;14.00;99.90;;;;;;5053636;28;20442;-85